AirNav   Air Wisconsin Up To $57,000 Bonus
 
 1055 users online  

43IN Hepler Airport
St Wendel, Indiana, USA

GOING TO ST WENDEL?


FAA INFORMATION EFFECTIVE 26 JANUARY 2023

Location

FAA Identifier: 43IN
Lat/Long: 38-08-15.1570N 087-40-35.0820W
38-08.252617N 087-40.584700W
38.1375436,-87.6764117
(estimated)
Elevation: 460 ft. / 140 m (estimated)
Variation: 00W (1985)
From city: 3 miles NE of ST WENDEL, IN
Time zone: UTC -6 (UTC -5 during Daylight Saving Time)
Zip code: 47639

Airport Operations

Airport use: Private use. Permission required prior to landing
Activation date: 11/1978
Control tower: no
ARTCC: INDIANAPOLIS CENTER
FSS: TERRE HAUTE FLIGHT SERVICE STATION
Attendance: UNATNDD
Wind indicator: yes
Segmented circle: no

Airport Communications

WX ASOS at EVV (9 nm SE): 120.2 (812-436-4681)
WX AWOS-3PT at EHR (20 nm S): 118.85 (270-826-0511)

Nearby radio navigation aids

VOR radial/distance  VOR name  Freq  Var
PXVr015/13.2POCKET CITY VORTAC113.3003E
OWBr318/33.8OWENSBORO VOR/DME108.6004W

 
NDB name  Hdg/Dist  Freq  Var  ID
WAYNE COUNTY114/37.525701WFWC ..-. .-- -.-.

Airport Services

Runway Information

Runway 9/27

Dimensions: 2600 x 90 ft. / 792 x 27 m
Surface: turf
RUNWAY 9  RUNWAY 27
Traffic pattern: leftleft
Obstructions: pline, 500 ft. from runwaynone

Airport Ownership and Management from official FAA records

Ownership: Privately-owned
Owner: WEYTHMAN AIR, LLC
2815 N. RED BANK RD.
EVANSVILLE, IN 47720
Phone (972) 922-0922
Manager: GRANT WEYTHMAN
2815 N. RED BANK RD.
EVANSVILLE, IN 47720
Phone (972) 922-0922

Airport Operational Statistics

Aircraft based on the field: 5
Single engine airplanes: 5
    

Additional Remarks

FOR CD CTC EVANSVILLE APCH AT 812-436-4690, WHEN APCH CLSD CTC INDIANAPOLIS ARTCC AT 317-247-2411.

Instrument Procedures

There are no published instrument procedures at 43IN.

Some nearby airports with instrument procedures:

KEVV - Evansville Regional Airport (9 nm SE)
KEHR - Henderson City-County Airport (20 nm S)
KCUL - Carmi Municipal Airport (21 nm W)
KAJG - Mount Carmel Municipal Airport (28 nm N)
KOWB - Owensboro/Daviess County Regional Airport (34 nm SE)
 
Loc | Ops | Rwys | IFR | FBO | Links
Com | Nav | Svcs | Stats | Notes
Area around 43IN (Hepler Airport)
 
Road maps at: MapQuest Bing Google
 
Aerial photo
No photo
 
Sectional chart

 
Airport distance calculator
Flying to Hepler Airport? Find the distance to fly.

From to 43IN

Sunrise and sunset
Times for 08-Feb-2023
 Local
(UTC-6)
 Zulu
(UTC)
Morning civil twilight06:2212:22
Sunrise06:5012:50
Sunset17:2023:20
Evening civil twilight17:4823:48

Current date and time
Zulu (UTC)  09-Feb-2023 04:02:06
Local (UTC-6)  08-Feb-2023 22:02:06
 
METAR
KEVV 
9nm SE 
090354Z 06007KT 6SM BR FEW011 OVC036 11/11 A2989 RMK AO2 LTG DSNT SW RAB0259E23 PRESFR SLP121 P0001 T01110106 $
KI19 
18nm E 
090355Z AUTO VRB04KT 4SM -RA BR OVC027 06/06 A3007 RMK AO2 P0006
KEHR 
19nm S 
090356Z AUTO 09006KT 4SM VCTS BR SCT010 SCT080 BKN110 12/11 A2987 RMK AO2 LTG DSNT W TSB56 PRESFR SLP117 T01170111
TAF
KEVV 
9nm SE 
082054Z 0821/0918 09007KT 2SM SHRA BR SCT008 OVC015 TEMPO 0821/0822 OVC050 FM090200 14014KT 6SM SHRA BR SCT008 OVC015 FM090500 16017G28KT 6SM -SHRA BR OVC020 WS020/18045KT FM090900 19023G40KT 6SM SHRA BR OVC015 WS020/19055KT FM091200 22023G38KT P6SM OVC015
NOTAMs
Click for the latest NOTAMs
NOTAMs are issued by the DoD/FAA and will open in a separate window not controlled by AirNav.

 

 
 

Would you like to see your business listed on this page?

 If your business provides an interesting product or service to pilots, flight crews, aircraft, or users of the Hepler Airport, you should consider listing it here.  To start the listing process, click on the button below
 
Add a business
 

Other Pages about Hepler Airport

Update a link
 
Copyright © AirNav, LLC. All rights reserved. Privacy Policy  Contact